Time Latitude Longitude Accuracy (66% radius in meters) Altitude (meters) Speed (km/hour) Bearing (degrees) Battery (%) GPS flag
07:00:40 57.212770 60.118033 3 296 1.3929105997086 130.30000305176 94 1 delete
07:00:30 57.212845 60.117905 3 295 2.0814657211304 130.30000305176 94 1 delete
07:00:23 57.212941 60.117945 3 300 3.1207849979401 236.80000305176 94 1 delete
07:00:18 57.213030 60.118062 4 298 2.2727077007294 204.19999694824 94 1 delete
07:00:14 57.213119 60.118099 4 297 2.4512240886688 195.39999389648 94 1 delete
07:00:07 57.213218 60.118010 3 292 1.714059472084 125.30000305176 97 1 delete
06:59:48 57.213219 60.117827 3 293 5.0632004737854 310 97 1 delete
06:59:45 57.213130 60.118033 3 292 2.926055431366 316.5 97 1 delete
06:59:42 57.213030 60.118014 3 295 3.782723903656 23.299999237061 97 1 delete
06:59:39 57.212930 60.117921 4 296 4.0336585044861 21.299999237061 97 1 delete
06:59:35 57.212812 60.117841 3 295 2.7537791728973 57.299999237061 97 1 delete
06:59:32 57.212701 60.117834 3 299 3.6434736251831 325.79998779297 97 1 delete
06:59:30 57.212639 60.117978 3 302 4.2020111083984 291.89999389648 97 1 delete
06:59:28 57.212592 60.118129 4 304 4.2233872413635 288.20001220703 97 1 delete
06:59:25 57.212530 60.118303 4 307 2.5200991630554 297.20001220703 97 1 delete
06:59:21 57.212445 60.118380 3 306 1.8963649272919 13.699999809265 97 1 delete
06:59:17 57.212357 60.118336 4 306 3.059493303299 18.60000038147 97 1 delete
06:59:13 57.212252 60.118229 4 305 3.634955406189 5.9000000953674 97 1 delete
06:59:10 57.212149 60.118238 4 302 4.3102898597717 2.7000000476837 97 1 delete
06:59:07 57.212037 60.118230 3 304 4.3976926803589 14.5 97 1 delete
06:59:03 57.211925 60.118247 4 306 5.5100364685059 303.70001220703 97 1 delete
06:59:01 57.211891 60.118416 4 306 6.6303095817566 309.29998779297 97 1 delete
06:58:59 57.211826 60.118588 4 305 5.380455493927 323.5 97 1 delete
06:58:33 57.211730 60.118754 3 306 1.0469479560852 123.69999694824 97 1 delete
06:58:26 57.211798 60.118629 3 305 1.2987686395645 145.30000305176 97 1 delete
06:58:18 57.211865 60.118493 3 304 1.321892619133 129.10000610352 97 1 delete
06:58:08 57.211921 60.118345 3 303 1.246635556221 119.5 97 1 delete
06:58:02 57.211971 60.118194 3 303 1.9516658782959 120.09999847412 97 1 delete
06:57:56 57.212026 60.118024 3 300 1.3296616077423 117.69999694824 97 1 delete
06:57:46 57.212086 60.117873 3 298 1.1378048658371 135.39999389648 97 1 delete
06:57:29 57.212156 60.117742 3 297 1.3050670623779 128.89999389648 97 1 delete
06:57:23 57.212225 60.117625 3 295 1.7141761779785 124.5 97 1 delete
06:57:17 57.212301 60.117490 3 294 1.2070211172104 142.5 97 1 delete
06:57:11 57.212385 60.117400 3 292 2.1151359081268 146.30000305176 97 1 delete
06:57:07 57.212461 60.117304 4 289 2.5144779682159 148.39999389648 97 1 delete
06:56:53 57.212539 60.117204 3 288 0 0 97 1 delete
06:56:38 57.212615 60.117116 3 290 2.2121934890747 151.30000305176 97 1 delete
06:56:24 57.212700 60.117176 3 291 2.9433484077454 187.19999694824 97 1 delete
06:56:21 57.212767 60.117299 3 294 4.5463390350342 258.60000610352 97 1 delete
06:56:18 57.212775 60.117527 3 294 4.1930060386658 270.60000610352 97 1 delete
06:56:15 57.212764 60.117733 3 296 0.73824113607407 277.89999389648 97 1 delete
06:56:10 57.212716 60.117889 4 299 3.7886805534363 308.70001220703 97 1 delete
06:56:07 57.212661 60.118070 3 301 3.2117908000946 289.20001220703 97 1 delete
06:56:03 57.212600 60.118253 4 298 3.7787828445435 297.70001220703 97 1 delete
06:56:00 57.212497 60.118339 3 300 3.9539852142334 326.5 97 1 delete
06:55:57 57.212386 60.118307 3 303 2.8255441188812 13.300000190735 97 1 delete
06:55:54 57.212304 60.118225 3 304 2.654524564743 21.200000762939 97 1 delete
06:55:50 57.212207 60.118191 3 299 4.1453227996826 357.10000610352 97 1 delete
06:55:46 57.212084 60.118197 3 298 2.0796394348145 5.5 97 1 delete
06:55:25 57.212019 60.118051 3 298 1.2628935575485 118.19999694824 97 1 delete